MiSS Callie Cate — WDF2692 — position and weather

sailwx.info

Track history (hours):
 
Tides and Currents Weather Stations Pressure Air Temp Water Temp Dewpoint Dewpoint Depression Visibility Wind Speed Wind Dir Waves Ship Positions

MiSS Callie Cate

Owner: Marquette Transportation Company Offshore LLC, Jefferson, LA. More information available from US FCC via Universal Licensing System and Coast Guard Vessel Documentation Center.

Last reported at 2017-Oct-14 10:17 UTC. Time now 2017-Oct-18 00:10 UTC.
Position N 29°37' W 091°08'.

Length 26 m; draft 12 m.

Type: Towing. MMSI: 367430790.

Date/timePositionNaut miles runAvg speedWind from/ knotsBaromVisibWave heightAir tempDewpointWater temp
2017-Oct-14 10:17N 29°37' W 091°08'16 0.5
2017-Oct-13 03:11N 29°32' W 090°50'1 8.2
2017-Oct-13 03:00N 29°32' W 090°48'3 6.3
2017-Oct-13 02:30N 29°33' W 090°45'2 4.2
2017-Oct-13 02:00N 29°34' W 090°43'3 6.6
2017-Oct-13 01:30N 29°30' W 090°43'4 7.9
2017-Oct-13 01:00N 29°26' W 090°43'4 7.1
2017-Oct-13 00:30N 29°23' W 090°44'  
2017-Oct-08 23:40N 29°26' W 090°43'2 6.6
2017-Oct-08 23:23N 29°27' W 090°43'3 6.7
2017-Oct-08 23:00N 29°30' W 090°43'3 6.6
2017-Oct-08 22:30N 29°33' W 090°42'2 3.9
2017-Oct-08 22:00N 29°34' W 090°45'3 6.8
2017-Oct-08 21:30N 29°32' W 090°48'  
2017-Oct-06 08:51N 29°32' W 090°53'3 5.8
2017-Oct-06 08:24N 29°32' W 090°50'3 5.9
2017-Oct-06 07:56N 29°32' W 090°47'2 5.1
2017-Oct-06 07:30N 29°34' W 090°45'2 3.7
2017-Oct-06 07:00N 29°34' W 090°43'2 4.5
2017-Oct-06 06:30N 29°32' W 090°42'3 5.2
2017-Oct-06 06:01N 29°29' W 090°43'2 4.6
2017-Oct-06 05:30N 29°27' W 090°43'1 0.2
2017-Oct-06 00:49N 29°26' W 090°43'3 7.5
2017-Oct-06 00:28N 29°29' W 090°43'3 6.9
2017-Oct-06 00:00N 29°32' W 090°42'2 4.4
2017-Oct-05 23:30N 29°34' W 090°43'0 0.4
2017-Oct-05 22:58N 29°34' W 090°43'0 0.1
2017-Oct-05 22:28N 29°34' W 090°43'2 4.4
2017-Oct-05 22:00N 29°33' W 090°45'4 7.1
2017-Oct-05 21:30N 29°32' W 090°50'0 0.0
2017-Oct-04 20:55N 29°32' W 090°50'4 9.1
2017-Oct-04 20:30N 29°33' W 090°46'3 6.5
2017-Oct-04 20:00N 29°35' W 090°43'2 4.8
2017-Oct-04 19:30N 29°36' W 090°40'1 2.5
2017-Oct-04 19:00N 29°36' W 090°39'3 5.8
2017-Oct-04 18:30N 29°35' W 090°36'3 5.5
2017-Oct-04 17:59N 29°34' W 090°33'  
Track history (hours):
 
Tides and Currents Weather Stations Pressure Air Temp Water Temp Dewpoint Dewpoint Depression Visibility Wind Speed Wind Dir Waves Ship Positions

MiSS Callie Cate

Owner: Marquette Transportation Company Offshore LLC, Jefferson, LA. More information available from US FCC via Universal Licensing System and Coast Guard Vessel Documentation Center.

Last reported at 2017-Oct-14 10:17 UTC. Time now 2017-Oct-18 00:10 UTC.
Position N 29°37' W 091°08'.

Length 26 m; draft 12 m.

Type: Towing. MMSI: 367430790.

Date/timePositionNaut miles runAvg speedWind from/ knotsBaromVisibWave heightAir tempDewpointWater temp
2017-Oct-14 10:17N 29°37' W 091°08'16 0.5
2017-Oct-13 03:11N 29°32' W 090°50'1 8.2
2017-Oct-13 03:00N 29°32' W 090°48'3 6.3
2017-Oct-13 02:30N 29°33' W 090°45'2 4.2
2017-Oct-13 02:00N 29°34' W 090°43'3 6.6
2017-Oct-13 01:30N 29°30' W 090°43'4 7.9
2017-Oct-13 01:00N 29°26' W 090°43'4 7.1
2017-Oct-13 00:30N 29°23' W 090°44'  
2017-Oct-08 23:40N 29°26' W 090°43'2 6.6
2017-Oct-08 23:23N 29°27' W 090°43'3 6.7
2017-Oct-08 23:00N 29°30' W 090°43'3 6.6
2017-Oct-08 22:30N 29°33' W 090°42'2 3.9
2017-Oct-08 22:00N 29°34' W 090°45'3 6.8
2017-Oct-08 21:30N 29°32' W 090°48'  
2017-Oct-06 08:51N 29°32' W 090°53'3 5.8
2017-Oct-06 08:24N 29°32' W 090°50'3 5.9
2017-Oct-06 07:56N 29°32' W 090°47'2 5.1
2017-Oct-06 07:30N 29°34' W 090°45'2 3.7
2017-Oct-06 07:00N 29°34' W 090°43'2 4.5
2017-Oct-06 06:30N 29°32' W 090°42'3 5.2
2017-Oct-06 06:01N 29°29' W 090°43'2 4.6
2017-Oct-06 05:30N 29°27' W 090°43'1 0.2
2017-Oct-06 00:49N 29°26' W 090°43'3 7.5
2017-Oct-06 00:28N 29°29' W 090°43'3 6.9
2017-Oct-06 00:00N 29°32' W 090°42'2 4.4
2017-Oct-05 23:30N 29°34' W 090°43'0 0.4
2017-Oct-05 22:58N 29°34' W 090°43'0 0.1
2017-Oct-05 22:28N 29°34' W 090°43'2 4.4
2017-Oct-05 22:00N 29°33' W 090°45'4 7.1
2017-Oct-05 21:30N 29°32' W 090°50'0 0.0
2017-Oct-04 20:55N 29°32' W 090°50'4 9.1
2017-Oct-04 20:30N 29°33' W 090°46'3 6.5
2017-Oct-04 20:00N 29°35' W 090°43'2 4.8
2017-Oct-04 19:30N 29°36' W 090°40'1 2.5
2017-Oct-04 19:00N 29°36' W 090°39'3 5.8
2017-Oct-04 18:30N 29°35' W 090°36'3 5.5
2017-Oct-04 17:59N 29°34' W 090°33'  

Dump ship's entire track history